Time;durP1;ratioP1;P1;durP2;ratioP2;P2;SDS_P1;SDS_P2;PMS_P1;PMS_P2;Temp;Humidity;BMP_temperature;BMP_pressure;BME280_temperature;BME280_humidity;BME280_pressure;Samples;Min_cycle;Max_cycle;Signal;HPM_P1;HPM_P2
2021/12/25 00:00:16;;;;;;;22.65;6.78;;;;;;;5.48;100.00;100312.63;5043486;28;20039;-73
2021/12/25 00:02:43;;;;;;;12.48;7.32;;;;;;;5.49;100.00;100324.72;5045747;28;20139;-73
2021/12/25 00:05:10;;;;;;;14.45;7.10;;;;;;;5.47;100.00;100310.94;5046523;28;20033;-73
2021/12/25 00:07:37;;;;;;;10.75;6.53;;;;;;;5.46;100.00;100308.44;5051834;28;20048;-74
2021/12/25 00:10:07;;;;;;;14.77;6.88;;;;;;;5.48;100.00;100306.59;5058702;28;20041;-74
2021/12/25 00:12:34;;;;;;;16.60;8.38;;;;;;;5.46;100.00;100309.28;5064868;28;20063;-72
2021/12/25 00:15:01;;;;;;;13.90;7.80;;;;;;;5.44;100.00;100305.97;5052894;28;20045;-74
2021/12/25 00:17:29;;;;;;;14.63;7.00;;;;;;;5.43;100.00;100312.09;5047712;28;20033;-72
2021/12/25 00:19:56;;;;;;;11.13;6.53;;;;;;;5.42;100.00;100313.03;5048411;28;20095;-73
2021/12/25 00:22:23;;;;;;;12.38;6.57;;;;;;;5.43;100.00;100309.50;5053636;28;20052;-74
2021/12/25 00:24:50;;;;;;;15.48;5.82;;;;;;;5.41;100.00;100316.56;5056196;28;20041;-73
2021/12/25 00:27:39;;;;;;;10.30;6.25;;;;;;;5.47;100.00;100310.94;5072300;28;20044;-72
2021/12/25 00:33:02;;;;;;;13.13;7.72;;;;;;;5.49;100.00;100306.47;5061222;28;20072;-72
2021/12/25 00:38:27;;;;;;;16.98;7.75;;;;;;;5.42;100.00;100302.59;5049893;27;20435;-73
2021/12/25 00:40:54;;;;;;;12.32;6.60;;;;;;;5.38;100.00;100295.91;5032881;28;20050;-73
2021/12/25 00:43:21;;;;;;;10.05;5.75;;;;;;;5.38;100.00;100297.69;5031599;28;20072;-72
2021/12/25 00:45:47;;;;;;;15.00;7.55;;;;;;;5.33;100.00;100302.38;5027404;28;20052;-73
2021/12/25 00:48:14;;;;;;;13.60;7.28;;;;;;;5.32;100.00;100301.53;5030163;28;20059;-72
2021/12/25 00:50:40;;;;;;;18.33;9.38;;;;;;;5.31;100.00;100293.81;5027594;28;20049;-74
2021/12/25 00:53:07;;;;;;;19.45;9.52;;;;;;;5.36;100.00;100296.94;5026161;28;20128;-73
2021/12/25 00:55:35;;;;;;;14.10;7.68;;;;;;;5.36;100.00;100302.16;5024398;28;20102;-73
2021/12/25 00:58:02;;;;;;;17.88;9.20;;;;;;;5.38;100.00;100298.50;5024190;28;20057;-73
2021/12/25 01:00:29;;;;;;;20.90;8.40;;;;;;;5.39;100.00;100297.59;5025130;28;20069;-73
2021/12/25 01:02:55;;;;;;;14.00;6.65;;;;;;;5.38;100.00;100306.31;5022093;28;20033;-74
2021/12/25 01:05:22;;;;;;;11.35;7.10;;;;;;;5.37;100.00;100303.84;5022715;28;20132;-72
2021/12/25 01:07:49;;;;;;;10.48;6.28;;;;;;;5.32;100.00;100298.91;5024553;28;20069;-72
2021/12/25 01:10:18;;;;;;;19.33;7.00;;;;;;;5.30;100.00;100292.97;5024483;28;20039;-73
2021/12/25 01:12:58;;;;;;;14.30;7.22;;;;;;;5.26;100.00;100296.72;5024429;28;20056;-73
2021/12/25 01:15:34;;;;;;;17.25;7.97;;;;;;;5.17;100.00;100299.91;5023176;28;20053;-74
2021/12/25 01:18:41;;;;;;;13.77;5.78;;;;;;;5.13;100.00;100306.22;5019886;28;20053;-72
2021/12/25 01:21:33;;;;;;;12.10;6.25;;;;;;;5.12;100.00;100307.19;5021655;28;20046;-71
2021/12/25 01:29:36;;;;;;;14.25;7.15;;;;;;;5.08;99.92;100300.50;5016283;28;20065;-72
2021/12/25 01:32:38;;;;;;;27.65;8.55;;;;;;;5.04;99.17;100311.19;5020412;28;20041;-71
2021/12/25 01:35:28;;;;;;;11.73;7.45;;;;;;;5.00;99.94;100305.34;5000921;28;20073;-73
2021/12/25 01:38:20;;;;;;;15.35;8.50;;;;;;;4.98;99.72;100314.19;5020154;28;20053;-72
2021/12/25 01:40:56;;;;;;;17.67;8.00;;;;;;;4.95;99.41;100314.38;5022317;28;20053;-72
2021/12/25 01:48:52;;;;;;;13.55;6.53;;;;;;;4.91;98.99;100308.53;5013511;28;20275;-72
2021/12/25 01:51:19;;;;;;;9.65;5.45;;;;;;;4.90;98.93;100303.44;5008697;28;20127;-72
2021/12/25 01:53:46;;;;;;;16.58;8.00;;;;;;;4.92;98.88;100305.00;5005788;28;20168;-73
2021/12/25 01:56:12;;;;;;;26.33;11.02;;;;;;;4.86;99.08;100307.16;5007609;28;20124;-74
2021/12/25 01:58:39;;;;;;;23.02;9.35;;;;;;;4.85;99.22;100305.47;5010277;28;20049;-71
2021/12/25 02:01:07;;;;;;;13.45;7.47;;;;;;;4.85;99.26;100303.72;5007721;28;20132;-72
2021/12/25 02:03:36;;;;;;;12.85;7.72;;;;;;;4.79;99.44;100314.53;5009410;28;20388;-73
2021/12/25 02:06:04;;;;;;;18.02;10.15;;;;;;;4.76;99.52;100312.09;5008602;28;20045;-73
2021/12/25 02:08:30;;;;;;;18.17;7.90;;;;;;;4.80;99.76;100313.56;5011404;28;20123;-73
2021/12/25 02:10:58;;;;;;;16.13;8.45;;;;;;;4.68;99.13;100307.47;5011272;28;20041;-72
2021/12/25 02:13:39;;;;;;;17.08;8.70;;;;;;;4.67;98.56;100311.84;5010252;28;20073;-72
2021/12/25 02:16:12;;;;;;;24.02;9.82;;;;;;;4.56;98.31;100321.22;5010750;28;20152;-72
2021/12/25 02:18:57;;;;;;;15.50;7.30;;;;;;;4.44;98.60;100319.38;5011284;28;20053;-71
2021/12/25 02:21:34;;;;;;;18.48;8.77;;;;;;;4.37;98.31;100328.47;5016826;28;20046;-73
2021/12/25 02:24:21;;;;;;;16.02;8.70;;;;;;;4.29;98.62;100322.91;5033433;28;20057;-72
2021/12/25 02:26:48;;;;;;;22.30;8.32;;;;;;;4.23;98.03;100320.66;5015646;28;20057;-72
2021/12/25 02:29:15;;;;;;;22.90;8.82;;;;;;;4.19;98.63;100320.00;5031426;28;20045;-73
2021/12/25 02:31:42;;;;;;;25.88;11.32;;;;;;;4.16;98.41;100316.75;5011830;28;20045;-72
2021/12/25 02:34:09;;;;;;;18.05;8.23;;;;;;;4.08;98.37;100318.97;5012285;28;20037;-72
2021/12/25 02:36:37;;;;;;;23.10;11.25;;;;;;;3.99;98.72;100314.31;5018235;28;20057;-72
2021/12/25 02:39:04;;;;;;;17.20;9.50;;;;;;;3.97;98.52;100318.78;5021315;28;20075;-71
2021/12/25 02:41:31;;;;;;;20.13;9.85;;;;;;;3.91;98.23;100323.50;5017577;28;20037;-71
2021/12/25 02:44:17;;;;;;;16.88;7.88;;;;;;;3.90;98.47;100321.84;5022707;28;20510;-71
2021/12/25 02:46:48;;;;;;;16.60;9.15;;;;;;;3.83;98.28;100318.75;5020303;28;20100;-73
2021/12/25 02:49:15;;;;;;;23.20;11.63;;;;;;;3.84;98.91;100322.19;5021747;28;20041;-72
2021/12/25 02:51:44;;;;;;;24.77;9.38;;;;;;;3.81;98.39;100332.75;5018728;28;20089;-72
2021/12/25 02:54:12;;;;;;;23.50;11.27;;;;;;;3.78;98.51;100325.13;5010301;28;20045;-72
2021/12/25 02:56:39;;;;;;;37.08;14.35;;;;;;;3.78;98.78;100323.38;5010864;28;20045;-72
2021/12/25 02:59:05;;;;;;;20.23;10.65;;;;;;;3.75;98.83;100326.16;5009743;28;20136;-73
2021/12/25 03:01:32;;;;;;;17.40;8.20;;;;;;;3.79;98.53;100335.47;5011918;28;20045;-73
2021/12/25 03:03:59;;;;;;;13.43;8.25;;;;;;;3.73;97.82;100319.38;5003831;28;20170;-72
2021/12/25 03:06:27;;;;;;;15.13;8.25;;;;;;;3.74;98.02;100316.69;5004970;28;20030;-72
2021/12/25 03:08:56;;;;;;;13.43;7.78;;;;;;;3.73;97.97;100325.44;5003639;28;20519;-73
2021/12/25 03:11:24;;;;;;;23.35;9.63;;;;;;;3.73;98.07;100319.38;5006541;28;20053;-72
2021/12/25 03:13:58;;;;;;;14.93;7.53;;;;;;;3.75;98.20;100320.13;4988920;28;20615;-72
2021/12/25 03:16:25;;;;;;;14.35;8.85;;;;;;;3.68;98.43;100319.66;5004895;28;20045;-71
2021/12/25 03:18:54;;;;;;;25.77;10.20;;;;;;;3.68;98.23;100319.66;4989603;28;20057;-72
2021/12/25 03:21:21;;;;;;;20.55;7.30;;;;;;;3.62;98.08;100321.75;4988200;28;20134;-72
2021/12/25 03:23:50;;;;;;;18.60;7.18;;;;;;;3.53;98.07;100320.53;5008983;28;20788;-73
2021/12/25 03:26:18;;;;;;;9.00;6.13;;;;;;;3.55;98.10;100316.09;5006827;28;20058;-72
2021/12/25 03:28:46;;;;;;;17.85;9.13;;;;;;;3.50;98.36;100325.88;5005864;28;20034;-72
2021/12/25 03:31:17;;;;;;;13.73;6.68;;;;;;;3.51;98.03;100330.16;5003628;28;20069;-72
2021/12/25 03:33:45;;;;;;;18.60;10.68;;;;;;;3.45;97.74;100327.91;5009798;28;20507;-73
2021/12/25 03:36:12;;;;;;;15.43;8.55;;;;;;;3.42;97.32;100328.09;5005916;28;20053;-71
2021/12/25 03:38:38;;;;;;;15.73;9.98;;;;;;;3.40;97.84;100334.28;5005044;28;20071;-71
2021/12/25 03:43:50;;;;;;;19.27;11.55;;;;;;;3.31;97.80;100338.25;5085766;27;20932;-73
2021/12/25 03:46:20;;;;;;;13.30;9.25;;;;;;;3.29;98.24;100340.09;5085948;28;20036;-74
2021/12/25 03:49:03;;;;;;;26.50;10.68;;;;;;;3.25;98.37;100337.75;5091474;28;20042;-72
2021/12/25 04:00:01;;;;;;;15.10;7.97;;;;;;;2.99;98.71;100346.13;5092021;28;20133;-74
2021/12/25 04:02:35;;;;;;;17.85;10.38;;;;;;;2.97;98.71;100340.19;5095333;28;20040;-73
2021/12/25 04:05:06;;;;;;;14.43;8.80;;;;;;;2.95;98.82;100348.97;5088045;28;20032;-75
2021/12/25 04:10:00;;;;;;;13.75;7.75;;;;;;;2.88;98.90;100352.81;5091525;27;20494;-73
2021/12/25 04:12:27;;;;;;;16.35;8.85;;;;;;;2.76;98.83;100343.94;5089908;28;20132;-71
2021/12/25 04:14:54;;;;;;;21.25;9.63;;;;;;;2.71;98.92;100350.31;5092751;28;20796;-70
2021/12/25 04:17:21;;;;;;;26.83;9.77;;;;;;;2.67;98.92;100356.56;5096398;28;20039;-72
2021/12/25 04:19:48;;;;;;;23.27;8.93;;;;;;;2.64;98.89;100359.31;5097430;28;20040;-71
2021/12/25 04:22:20;;;;;;;7.90;6.20;;;;;;;2.65;98.74;100361.00;5111213;28;20047;-73
2021/12/25 04:24:49;;;;;;;7.20;5.68;;;;;;;2.67;98.71;100359.16;5096152;28;20031;-70
2021/12/25 04:27:18;;;;;;;14.02;8.65;;;;;;;2.63;98.79;100368.03;5113382;28;20118;-71
2021/12/25 04:29:49;;;;;;;11.95;6.13;;;;;;;2.61;99.04;100365.53;5100529;28;20048;-71
2021/12/25 04:32:52;;;;;;;14.23;7.07;;;;;;;2.59;98.92;100374.28;5095229;28;20063;-70
2021/12/25 04:49:46;;;;;;;19.10;9.32;;;;;;;2.49;98.86;100386.06;5092749;28;20058;-74
2021/12/25 05:03:36;;;;;;;16.95;5.47;;;;;;;2.45;99.20;100402.69;5088120;28;20125;-71
2021/12/25 05:06:03;;;;;;;9.50;6.97;;;;;;;2.38;99.15;100403.09;5089357;28;20043;-71
2021/12/25 05:08:30;;;;;;;13.73;7.97;;;;;;;2.32;99.71;100409.41;5084729;28;20050;-72
2021/12/25 05:10:58;;;;;;;14.23;6.95;;;;;;;2.28;99.45;100413.06;5086609;28;20047;-71
2021/12/25 05:13:25;;;;;;;16.10;7.70;;;;;;;2.23;99.51;100414.19;5067557;28;20051;-72
2021/12/25 05:15:53;;;;;;;17.65;7.55;;;;;;;2.22;99.59;100412.53;5087674;28;20044;-70
2021/12/25 05:18:19;;;;;;;11.18;6.10;;;;;;;2.20;99.84;100414.38;5088232;28;20635;-71
2021/12/25 05:20:46;;;;;;;11.77;6.60;;;;;;;2.12;99.55;100412.16;5085178;28;20336;-71
2021/12/25 05:23:13;;;;;;;11.70;8.48;;;;;;;2.07;99.61;100418.47;5094643;28;20036;-72
2021/12/25 05:25:40;;;;;;;11.95;8.20;;;;;;;1.94;99.27;100418.25;5088744;28;20044;-72
2021/12/25 05:28:07;;;;;;;13.82;7.78;;;;;;;1.93;99.46;100411.38;5069864;28;20058;-72
2021/12/25 05:30:34;;;;;;;15.63;7.55;;;;;;;1.81;99.53;100422.38;5068061;28;20113;-72
2021/12/25 05:33:02;;;;;;;9.50;6.97;;;;;;;1.82;99.98;100421.47;5053531;28;20052;-71
2021/12/25 05:35:29;;;;;;;10.75;6.47;;;;;;;1.83;99.77;100423.13;5069470;28;20040;-73
2021/12/25 05:37:59;;;;;;;13.68;8.93;;;;;;;1.75;100.00;100422.69;5049925;28;20479;-73
2021/12/25 05:40:25;;;;;;;15.15;6.22;;;;;;;1.72;100.00;100433.16;5071729;28;20052;-72
2021/12/25 05:42:52;;;;;;;8.65;6.72;;;;;;;1.61;99.61;100419.88;5074778;28;20123;-72
2021/12/25 05:45:19;;;;;;;15.15;5.30;;;;;;;1.56;99.77;100427.97;5068432;28;20067;-73
2021/12/25 05:47:46;;;;;;;6.82;4.30;;;;;;;1.39;99.86;100422.72;5070503;28;20052;-73
2021/12/25 05:50:14;;;;;;;12.32;7.80;;;;;;;1.43;100.00;100429.47;5069099;28;20036;-72
2021/12/25 05:52:41;;;;;;;5.65;4.65;;;;;;;1.40;100.00;100438.19;5069860;28;20118;-73
2021/12/25 05:55:08;;;;;;;11.90;6.75;;;;;;;1.32;100.00;100439.47;5068762;28;20044;-72
2021/12/25 05:57:34;;;;;;;8.88;5.07;;;;;;;1.25;100.00;100435.50;5072868;28;20055;-73
2021/12/25 06:00:01;;;;;;;6.70;5.80;;;;;;;1.22;100.00;100449.41;5072019;28;20067;-72
2021/12/25 06:02:28;;;;;;;11.95;7.50;;;;;;;1.18;100.00;100449.63;5069229;28;20047;-72
2021/12/25 06:04:55;;;;;;;12.32;7.13;;;;;;;1.16;100.00;100451.41;5073095;28;20518;-71
2021/12/25 06:07:23;;;;;;;7.93;5.90;;;;;;;1.05;100.00;100453.66;5071505;28;20052;-73
2021/12/25 06:09:51;;;;;;;11.13;6.00;;;;;;;1.05;100.00;100464.00;5071023;28;20044;-72
2021/12/25 06:12:17;;;;;;;7.07;5.10;;;;;;;1.00;100.00;100459.03;5055032;28;20089;-72
2021/12/25 06:14:45;;;;;;;12.07;5.22;;;;;;;0.96;100.00;100460.09;5052737;28;20093;-72
2021/12/25 06:17:11;;;;;;;10.38;5.93;;;;;;;0.94;100.00;100461.06;5079346;28;20041;-75
2021/12/25 06:19:38;;;;;;;11.05;6.00;;;;;;;0.90;100.00;100464.69;5089783;28;20042;-71
2021/12/25 06:22:04;;;;;;;8.85;5.80;;;;;;;0.91;100.00;100471.53;5095350;28;20565;-72
2021/12/25 06:24:33;;;;;;;8.75;5.97;;;;;;;0.89;100.00;100473.34;5085487;28;20092;-71
2021/12/25 06:27:00;;;;;;;6.50;4.68;;;;;;;0.87;100.00;100470.84;5076574;28;20552;-73
2021/12/25 06:29:27;;;;;;;9.02;5.97;;;;;;;0.83;100.00;100471.03;5070698;28;20044;-74
2021/12/25 06:31:54;;;;;;;8.77;5.40;;;;;;;0.79;100.00;100477.22;5069393;28;20048;-73
2021/12/25 06:34:21;;;;;;;6.63;4.32;;;;;;;0.76;100.00;100472.22;5047547;28;20083;-73
2021/12/25 06:36:48;;;;;;;4.45;3.80;;;;;;;0.76;100.00;100479.13;5072518;28;20085;-70
2021/12/25 06:39:16;;;;;;;15.05;6.78;;;;;;;0.77;100.00;100483.38;5072823;28;20181;-73
2021/12/25 06:41:44;;;;;;;8.43;5.13;;;;;;;0.76;100.00;100481.69;5068263;28;20125;-72
2021/12/25 06:44:11;;;;;;;6.60;4.90;;;;;;;0.75;100.00;100475.72;5071425;28;20041;-70
2021/12/25 06:46:37;;;;;;;8.15;4.70;;;;;;;0.76;100.00;100492.91;5066721;28;20097;-74
2021/12/25 06:49:04;;;;;;;5.47;3.15;;;;;;;0.72;100.00;100485.34;5068898;28;20076;-72
2021/12/25 06:51:34;;;;;;;3.95;3.65;;;;;;;0.73;100.00;100484.44;5066202;28;20101;-74
2021/12/25 06:54:03;;;;;;;5.43;2.92;;;;;;;0.76;100.00;100495.47;5066429;28;20051;-71
2021/12/25 06:56:31;;;;;;;9.73;5.53;;;;;;;0.70;100.00;100498.31;5070214;28;20040;-70
2021/12/25 06:58:59;;;;;;;6.68;4.25;;;;;;;0.69;100.00;100495.81;5075351;28;20067;-72
2021/12/25 07:01:26;;;;;;;6.47;4.22;;;;;;;0.68;100.00;100502.72;5086589;28;20040;-72
2021/12/25 07:03:52;;;;;;;10.35;5.28;;;;;;;0.69;100.00;100504.41;5080046;28;20533;-73
2021/12/25 07:06:21;;;;;;;11.38;7.13;;;;;;;0.69;100.00;100512.16;5084609;28;20055;-71
2021/12/25 07:08:49;;;;;;;7.78;4.18;;;;;;;0.68;100.00;100515.66;5070979;28;20064;-71
2021/12/25 07:11:16;;;;;;;6.07;4.95;;;;;;;0.65;100.00;100515.78;5075108;28;20151;-71
2021/12/25 07:13:45;;;;;;;4.45;3.28;;;;;;;0.66;100.00;100521.78;5068036;28;20052;-71
2021/12/25 07:16:13;;;;;;;12.30;5.80;;;;;;;0.62;100.00;100521.06;5059746;28;20044;-71
2021/12/25 07:18:41;;;;;;;11.95;6.28;;;;;;;0.64;100.00;100529.59;5073217;28;20048;-73
2021/12/25 07:21:08;;;;;;;7.07;3.03;;;;;;;0.61;100.00;100523.72;5060933;28;20048;-72
2021/12/25 07:23:34;;;;;;;4.22;3.40;;;;;;;0.62;100.00;100528.81;5076047;28;20121;-73
2021/12/25 07:26:01;;;;;;;6.53;4.55;;;;;;;0.61;100.00;100531.47;5075575;28;20040;-72
2021/12/25 07:28:28;;;;;;;12.82;6.47;;;;;;;0.58;100.00;100524.69;5058358;28;20080;-70
2021/12/25 07:30:56;;;;;;;5.60;4.03;;;;;;;0.57;100.00;100532.53;5057328;28;20776;-72
2021/12/25 07:33:24;;;;;;;11.90;6.05;;;;;;;0.56;100.00;100538.59;5070559;28;20044;-72
2021/12/25 07:35:51;;;;;;;6.43;4.32;;;;;;;0.54;100.00;100536.03;5073202;28;20032;-72
2021/12/25 07:38:18;;;;;;;4.10;3.25;;;;;;;0.54;100.00;100542.97;5078689;28;20050;-72
2021/12/25 07:40:45;;;;;;;8.57;4.72;;;;;;;0.55;100.00;100544.66;5054673;28;20056;-72
2021/12/25 07:43:11;;;;;;;9.65;5.25;;;;;;;0.54;100.00;100548.13;5078414;28;20040;-71
2021/12/25 07:45:38;;;;;;;6.30;4.07;;;;;;;0.51;100.00;100543.94;5074609;28;20038;-70
2021/12/25 07:48:05;;;;;;;7.47;5.40;;;;;;;0.50;100.00;100539.69;5078907;28;20371;-73
2021/12/25 07:50:36;;;;;;;18.63;5.32;;;;;;;0.52;100.00;100545.63;5078174;28;20120;-72
2021/12/25 07:53:02;;;;;;;5.97;2.58;;;;;;;0.50;100.00;100554.31;5090192;28;20077;-72
2021/12/25 07:55:32;;;;;;;3.70;3.35;;;;;;;0.49;100.00;100550.91;5093912;28;20043;-71
2021/12/25 07:57:58;;;;;;;5.72;4.22;;;;;;;0.46;100.00;100566.53;5102423;28;20040;-71
2021/12/25 08:00:25;;;;;;;5.22;3.55;;;;;;;0.44;100.00;100560.59;5075443;28;20052;-72
2021/12/25 08:02:54;;;;;;;4.72;4.15;;;;;;;0.41;100.00;100558.13;5077673;28;20396;-71
2021/12/25 08:05:21;;;;;;;7.60;4.25;;;;;;;0.43;100.00;100563.22;5077336;28;20044;-72
2021/12/25 08:07:49;;;;;;;6.05;3.88;;;;;;;0.42;100.00;100570.16;5077109;28;20804;-71
2021/12/25 08:10:18;;;;;;;4.00;2.85;;;;;;;0.43;100.00;100566.69;5074757;28;20553;-72
2021/12/25 08:12:46;;;;;;;1.08;1.00;;;;;;;0.44;100.00;100568.38;5073108;28;20068;-72
2021/12/25 08:15:14;;;;;;;5.05;3.75;;;;;;;0.40;99.86;100576.28;5060825;28;20056;-73
2021/12/25 08:17:44;;;;;;;8.48;5.22;;;;;;;0.38;99.52;100578.91;5099889;28;20471;-70
2021/12/25 08:20:12;;;;;;;8.27;5.63;;;;;;;0.40;99.18;100587.47;5088607;28;20036;-70
2021/12/25 08:22:39;;;;;;;7.35;4.97;;;;;;;0.42;100.00;100585.66;5083000;28;20050;-70
2021/12/25 08:25:09;;;;;;;11.45;5.82;;;;;;;0.38;99.63;100585.84;5075221;28;20048;-72
2021/12/25 08:27:36;;;;;;;8.15;4.35;;;;;;;0.39;98.96;100585.78;5073212;28;20067;-71
2021/12/25 08:30:05;;;;;;;16.83;4.60;;;;;;;0.40;99.32;100587.47;5073369;28;20591;-72
2021/12/25 08:32:31;;;;;;;6.68;3.50;;;;;;;0.40;99.36;100595.22;5069655;28;20059;-71
2021/12/25 08:34:58;;;;;;;5.00;4.13;;;;;;;0.41;99.56;100594.31;5054801;28;20048;-73
2021/12/25 08:37:26;;;;;;;6.60;4.32;;;;;;;0.41;98.87;100589.13;5076271;28;20054;-71
2021/12/25 08:39:53;;;;;;;21.38;4.32;;;;;;;0.43;99.48;100608.00;5072473;28;20089;-71
2021/12/25 08:42:22;;;;;;;4.55;3.05;;;;;;;0.40;99.21;100597.78;5073464;28;20042;-70
2021/12/25 08:45:06;;;;;;;5.20;3.53;;;;;;;0.43;98.71;100608.00;5064983;28;20071;-71
2021/12/25 08:47:37;;;;;;;8.18;4.75;;;;;;;0.46;98.78;100594.13;5076507;28;20045;-69
2021/12/25 08:50:07;;;;;;;16.15;4.60;;;;;;;0.42;98.94;100596.00;5053422;28;20048;-71
2021/12/25 08:52:34;;;;;;;9.57;6.03;;;;;;;0.42;97.61;100606.31;5074780;28;20051;-71
2021/12/25 08:55:01;;;;;;;3.05;2.60;;;;;;;0.46;98.39;100605.28;5070636;28;20040;-71
2021/12/25 08:57:30;;;;;;;6.40;3.80;;;;;;;0.46;97.78;100612.22;5062242;28;20096;-71
2021/12/25 08:59:57;;;;;;;15.82;7.78;;;;;;;0.48;97.64;100621.56;5059273;28;20039;-72
2021/12/25 09:02:27;;;;;;;4.80;3.40;;;;;;;0.45;97.31;100616.53;5078694;28;20065;-72
2021/12/25 09:04:53;;;;;;;5.35;3.47;;;;;;;0.45;97.04;100621.69;5077532;28;20051;-72
2021/12/25 09:07:22;;;;;;;8.38;3.40;;;;;;;0.46;96.90;100628.53;5077770;28;20036;-70
2021/12/25 09:09:48;;;;;;;8.15;5.32;;;;;;;0.49;97.34;100632.78;5061385;28;20056;-70
2021/12/25 09:12:21;;;;;;;5.70;3.50;;;;;;;0.46;97.18;100628.53;5083799;28;20096;-71
2021/12/25 09:14:54;;;;;;;6.90;3.17;;;;;;;0.48;96.93;100637.06;5082811;28;20119;-72
2021/12/25 09:17:21;;;;;;;5.93;4.45;;;;;;;0.47;97.20;100637.97;5075417;28;20067;-69
2021/12/25 09:19:48;;;;;;;8.10;5.43;;;;;;;0.42;96.68;100634.75;5073719;28;20610;-68
2021/12/25 09:22:15;;;;;;;7.20;4.38;;;;;;;0.46;97.05;100641.47;5067808;28;20051;-68
2021/12/25 09:24:42;;;;;;;12.07;6.35;;;;;;;0.45;97.04;100644.94;5069252;28;20047;-70
2021/12/25 09:27:09;;;;;;;4.68;2.92;;;;;;;0.45;97.15;100639.78;5073310;28;20040;-71
2021/12/25 09:29:35;;;;;;;4.95;3.75;;;;;;;0.49;97.14;100645.69;5076464;28;20071;-71
2021/12/25 09:32:04;;;;;;;7.15;4.97;;;;;;;0.47;96.19;100650.91;5071721;28;20036;-71
2021/12/25 09:34:31;;;;;;;6.30;4.85;;;;;;;0.47;96.41;100656.06;5080140;28;20055;-71
2021/12/25 09:36:57;;;;;;;2.28;2.08;;;;;;;0.49;96.93;100654.25;5078548;28;20131;-71
2021/12/25 09:39:24;;;;;;;6.65;4.25;;;;;;;0.47;95.62;100650.91;5078155;28;20483;-72
2021/12/25 09:41:51;;;;;;;9.95;3.88;;;;;;;0.49;96.18;100658.59;5062885;28;20079;-73
2021/12/25 09:44:19;;;;;;;5.70;4.25;;;;;;;0.49;96.30;100656.03;5078537;28;20115;-73
2021/12/25 09:46:46;;;;;;;8.48;4.88;;;;;;;0.45;95.65;100655.28;5076357;28;20048;-72
2021/12/25 09:49:14;;;;;;;8.00;2.65;;;;;;;0.47;96.55;100661.22;5078609;28;20051;-73
2021/12/25 09:51:40;;;;;;;6.35;4.20;;;;;;;0.47;95.63;100661.22;5079929;28;20120;-74
2021/12/25 09:54:14;;;;;;;5.78;3.55;;;;;;;0.46;95.41;100671.63;5076698;28;20052;-70
2021/12/25 09:56:43;;;;;;;7.07;4.75;;;;;;;0.42;95.94;100663.16;5077068;28;20127;-72
2021/12/25 09:59:12;;;;;;;4.47;2.67;;;;;;;0.45;94.85;100667.38;5064831;28;20101;-71
2021/12/25 10:01:40;;;;;;;12.07;6.10;;;;;;;0.43;95.57;100675.19;5062984;28;20868;-73
2021/12/25 10:04:08;;;;;;;3.22;2.83;;;;;;;0.46;95.69;100664.72;5079740;28;20040;-72
2021/12/25 10:06:38;;;;;;;7.80;3.42;;;;;;;0.44;95.60;100661.38;5074762;28;20045;-74
2021/12/25 10:09:18;;;;;;;10.15;4.68;;;;;;;0.45;94.74;100655.28;5080816;28;20041;-74
2021/12/25 10:11:59;;;;;;;3.92;2.95;;;;;;;0.44;95.89;100650.19;5075112;28;20110;-73
2021/12/25 10:14:26;;;;;;;5.93;3.65;;;;;;;0.41;95.01;100647.72;5095714;28;20034;-73
2021/12/25 10:16:53;;;;;;;4.22;2.17;;;;;;;0.42;94.64;100658.00;5078269;28;20616;-73
2021/12/25 10:19:23;;;;;;;8.63;2.75;;;;;;;0.42;95.66;100645.09;5094824;28;20032;-73
2021/12/25 10:22:03;;;;;;;5.72;3.65;;;;;;;0.42;94.14;100649.38;5061921;28;20044;-73
2021/12/25 10:24:37;;;;;;;6.55;5.07;;;;;;;0.42;94.12;100649.38;5075433;28;20105;-73
2021/12/25 10:27:10;;;;;;;4.65;3.33;;;;;;;0.43;94.95;100658.81;5091785;28;20047;-69
2021/12/25 10:29:36;;;;;;;4.95;3.15;;;;;;;0.44;94.68;100656.22;5083507;28;20072;-73
2021/12/25 10:32:20;;;;;;;5.70;3.78;;;;;;;0.50;95.50;100647.34;5082444;28;20050;-74
2021/12/25 10:34:47;;;;;;;3.72;2.78;;;;;;;0.45;94.14;100657.03;5070425;28;20040;-72
2021/12/25 10:37:19;;;;;;;2.75;1.60;;;;;;;0.41;93.38;100663.25;5081104;28;20054;-71
2021/12/25 10:39:47;;;;;;;5.35;2.55;;;;;;;0.42;94.36;100655.41;5056670;28;20048;-73
2021/12/25 10:42:18;;;;;;;2.88;2.35;;;;;;;0.38;94.31;100664.16;5083833;28;20104;-72
2021/12/25 10:44:46;;;;;;;4.50;3.55;;;;;;;0.35;92.98;100661.72;5076825;28;20044;-76
2021/12/25 10:47:15;;;;;;;4.40;2.22;;;;;;;0.36;94.25;100668.59;5079671;28;20039;-73
2021/12/25 10:49:44;;;;;;;2.72;2.00;;;;;;;0.41;93.54;100668.41;5060598;28;20174;-69
2021/12/25 10:52:19;;;;;;;2.50;1.83;;;;;;;0.36;93.29;100678.91;5078557;28;20178;-73
2021/12/25 10:54:47;;;;;;;2.08;1.52;;;;;;;0.42;93.51;100686.41;5076128;28;20049;-72
2021/12/25 10:57:36;;;;;;;2.90;2.53;;;;;;;0.36;93.44;100683.22;5077620;28;20075;-71
2021/12/25 11:00:07;;;;;;;3.97;1.98;;;;;;;0.38;92.93;100691.75;5072877;28;20134;-72
2021/12/25 11:02:41;;;;;;;3.00;2.15;;;;;;;0.30;93.48;100681.72;5076657;28;20129;-72
2021/12/25 11:05:22;;;;;;;4.85;2.03;;;;;;;0.28;93.16;100673.22;5074401;28;20048;-72
2021/12/25 11:08:03;;;;;;;3.35;2.50;;;;;;;0.32;92.34;100677.34;5078546;28;20455;-74
2021/12/25 11:10:31;;;;;;;2.72;1.90;;;;;;;0.32;92.63;100685.09;5079123;28;20206;-73
2021/12/25 11:12:57;;;;;;;9.10;2.08;;;;;;;0.38;92.61;100679.66;5075977;28;20032;-73
2021/12/25 11:15:26;;;;;;;2.55;1.77;;;;;;;0.44;91.66;100676.88;5076070;28;20051;-75
2021/12/25 11:18:04;;;;;;;2.88;2.00;;;;;;;0.41;91.82;100687.31;5072305;28;20035;-72
2021/12/25 11:20:34;;;;;;;2.17;1.70;;;;;;;0.47;92.22;100675.91;5082915;28;20056;-73
2021/12/25 11:23:04;;;;;;;3.50;2.72;;;;;;;0.49;92.74;100663.78;5090573;28;20142;-71
2021/12/25 11:25:33;;;;;;;1.23;0.82;;;;;;;0.50;92.15;100678.34;5089037;28;20044;-73
2021/12/25 11:28:02;;;;;;;13.93;2.65;;;;;;;0.47;91.86;100671.56;5077978;28;20066;-74
2021/12/25 11:30:32;;;;;;;2.50;1.75;;;;;;;0.44;91.74;100671.72;5081592;28;20044;-73
2021/12/25 11:33:00;;;;;;;2.00;1.38;;;;;;;0.46;91.12;100664.72;5075939;28;20054;-73
2021/12/25 11:35:27;;;;;;;1.95;1.65;;;;;;;0.45;91.92;100668.19;5055603;28;20051;-74
2021/12/25 11:37:56;;;;;;;2.83;1.30;;;;;;;0.36;90.48;100663.41;5054478;28;20702;-71
2021/12/25 11:40:30;;;;;;;3.30;2.17;;;;;;;0.46;92.21;100653.56;5074735;28;20110;-72
2021/12/25 11:43:17;;;;;;;1.77;1.05;;;;;;;0.47;91.53;100661.22;5077843;28;20442;-72
2021/12/25 11:45:52;;;;;;;1.98;1.58;;;;;;;0.46;91.90;100653.56;5077665;28;20055;-73
2021/12/25 11:48:22;;;;;;;2.60;1.33;;;;;;;0.53;91.33;100660.16;5068800;28;20127;-72
2021/12/25 11:50:53;;;;;;;1.27;1.10;;;;;;;0.45;90.59;100652.69;5079244;28;20051;-70
2021/12/25 11:59:02;;;;;;;4.68;1.48;;;;;;;0.44;90.97;100671.72;5049243;28;20037;-71
2021/12/25 12:01:32;;;;;;;2.55;1.58;;;;;;;0.42;89.90;100650.25;5070430;28;20041;-71
2021/12/25 12:04:02;;;;;;;3.80;1.77;;;;;;;0.50;90.95;100662.84;5058597;28;20066;-74
2021/12/25 12:07:18;;;;;;;1.30;1.13;;;;;;;0.57;91.19;100652.22;5076512;28;20044;-73
2021/12/25 12:09:55;;;;;;;2.15;1.73;;;;;;;0.50;89.81;100660.25;5066824;28;20093;-73
2021/12/25 12:12:25;;;;;;;1.65;1.23;;;;;;;0.43;90.66;100670.03;5074045;28;20039;-73
2021/12/25 12:15:14;;;;;;;1.85;1.50;;;;;;;0.52;90.53;100664.50;5081097;28;20055;-73
2021/12/25 12:17:42;;;;;;;0.85;0.75;;;;;;;0.55;90.99;100669.53;5057023;28;20044;-72
2021/12/25 12:20:10;;;;;;;3.63;1.75;;;;;;;0.50;91.14;100681.78;5068101;28;20048;-72
2021/12/25 12:22:58;;;;;;;2.97;1.90;;;;;;;0.46;90.75;100677.63;5078201;28;20039;-73
2021/12/25 12:25:41;;;;;;;2.58;2.22;;;;;;;0.42;90.54;100681.25;5071672;28;20040;-72
2021/12/25 12:28:09;;;;;;;3.45;2.42;;;;;;;0.32;90.19;100677.34;5069159;28;20388;-74
2021/12/25 12:30:42;;;;;;;2.53;1.75;;;;;;;0.32;91.16;100679.91;5071365;28;20044;-72
2021/12/25 12:33:38;;;;;;;1.42;1.30;;;;;;;0.27;91.76;100668.94;5069085;28;20048;-72
2021/12/25 12:36:21;;;;;;;2.13;1.52;;;;;;;0.18;90.61;100673.59;5069635;28;20048;-72
2021/12/25 12:38:52;;;;;;;1.85;1.40;;;;;;;0.09;92.18;100664.47;5075500;28;20036;-72
2021/12/25 12:41:27;;;;;;;2.50;1.90;;;;;;;0.11;90.99;100661.81;5039178;28;20163;-72